Time;durP1;ratioP1;P1;durP2;ratioP2;P2;SDS_P1;SDS_P2;PMS_P1;PMS_P2;Temp;Humidity;BMP_temperature;BMP_pressure;BME280_temperature;BME280_humidity;BME280_pressure;Samples;Min_cycle;Max_cycle;Signal;HPM_P1;HPM_P2
2021/11/21 07:02:16;;;;;;;23.80;12.30;;;8.90;99.90;;;;;;6171551;23;20024;-79
2021/11/21 07:04:43;;;;;;;44.17;26.52;;;8.90;99.90;;;;;;6182066;23;20039;-79
2021/11/21 07:07:12;;;;;;;202.70;88.32;;;8.90;99.90;;;;;;6180482;23;20403;-80
2021/11/21 07:09:40;;;;;;;147.55;76.07;;;8.90;99.90;;;;;;6181366;23;20017;-80
2021/11/21 07:12:08;;;;;;;53.78;32.25;;;8.90;99.90;;;;;;6180588;23;20029;-80
2021/11/21 07:14:36;;;;;;;21.35;11.95;;;8.90;99.90;;;;;;6181346;23;20471;-80
2021/11/21 07:17:03;;;;;;;21.10;11.07;;;8.90;99.90;;;;;;6181839;23;20025;-80
2021/11/21 07:19:30;;;;;;;22.08;11.32;;;8.90;99.90;;;;;;6180699;23;20083;-80
2021/11/21 07:21:57;;;;;;;21.15;10.60;;;9.00;99.90;;;;;;6180500;23;20411;-80
2021/11/21 07:24:24;;;;;;;24.25;10.52;;;9.00;99.90;;;;;;6180921;23;20025;-80
2021/11/21 07:26:54;;;;;;;28.02;18.60;;;9.00;99.90;;;;;;6155568;23;20403;-80
2021/11/21 07:29:27;;;;;;;27.63;17.63;;;9.00;99.90;;;;;;6180981;23;20071;-79
2021/11/21 07:31:58;;;;;;;58.15;40.88;;;9.00;99.90;;;;;;6181037;23;20068;-80
2021/11/21 07:34:26;;;;;;;30.25;18.23;;;8.90;99.90;;;;;;6180186;23;20025;-82
2021/11/21 07:36:53;;;;;;;47.28;32.50;;;8.90;99.90;;;;;;6180195;23;20113;-81
2021/11/21 07:39:21;;;;;;;33.80;20.27;;;8.90;99.90;;;;;;6179418;23;20021;-81
2021/11/21 07:41:48;;;;;;;34.15;26.48;;;8.90;99.90;;;;;;6181018;23;20025;-80
2021/11/21 07:44:15;;;;;;;27.00;18.70;;;8.90;99.90;;;;;;6153599;23;20341;-82
2021/11/21 07:46:42;;;;;;;19.73;13.55;;;8.90;99.90;;;;;;6180277;23;20017;-81
2021/11/21 07:49:09;;;;;;;23.05;15.13;;;8.80;99.90;;;;;;6178864;23;20032;-82
2021/11/21 07:51:36;;;;;;;26.60;15.27;;;8.80;99.90;;;;;;6180442;23;20017;-82
2021/11/21 07:54:03;;;;;;;13.88;12.38;;;8.80;99.90;;;;;;6180570;23;20013;-81
2021/11/21 07:56:30;;;;;;;26.83;16.95;;;8.80;99.90;;;;;;6179324;23;20009;-79
2021/11/21 07:59:21;;;;;;;31.40;22.08;;;8.80;99.90;;;;;;6178405;23;20047;-79
2021/11/21 08:01:49;;;;;;;13.80;9.93;;;8.80;99.90;;;;;;6139202;23;20022;-80
2021/11/21 08:04:17;;;;;;;17.93;10.93;;;8.90;99.90;;;;;;6170647;23;20095;-80
2021/11/21 08:06:44;;;;;;;17.67;9.75;;;8.90;99.90;;;;;;6174889;23;20828;-81
2021/11/21 08:09:12;;;;;;;17.10;9.50;;;8.90;99.90;;;;;;6174511;23;20337;-81
2021/11/21 08:11:40;;;;;;;23.50;9.23;;;9.00;99.90;;;;;;6149054;23;20399;-81
2021/11/21 08:14:07;;;;;;;8.75;7.63;;;9.10;99.90;;;;;;6174575;23;20021;-81
2021/11/21 08:16:34;;;;;;;16.17;11.02;;;9.20;99.90;;;;;;6175776;23;20028;-81
2021/11/21 08:19:01;;;;;;;14.75;10.90;;;9.20;99.90;;;;;;6175548;23;20016;-82
2021/11/21 08:21:28;;;;;;;19.27;13.57;;;9.30;99.90;;;;;;6174765;23;20020;-81
2021/11/21 08:23:55;;;;;;;17.50;9.35;;;9.40;99.90;;;;;;6175810;23;20054;-84
2021/11/21 08:26:22;;;;;;;16.05;11.50;;;9.40;99.90;;;;;;6175928;23;20028;-82
2021/11/21 08:28:49;;;;;;;17.23;12.73;;;9.50;99.90;;;;;;6175905;23;20028;-83
2021/11/21 08:31:16;;;;;;;37.50;29.27;;;9.60;99.90;;;;;;6174586;23;20032;-82
2021/11/21 08:33:43;;;;;;;13.00;6.18;;;9.60;99.90;;;;;;6149707;23;20037;-81
2021/11/21 08:36:10;;;;;;;42.60;35.63;;;9.60;99.90;;;;;;6174676;23;20024;-82
2021/11/21 08:38:38;;;;;;;15.38;10.27;;;9.60;99.90;;;;;;6150418;23;20345;-82
2021/11/21 08:41:05;;;;;;;12.63;6.38;;;9.70;99.90;;;;;;6175279;23;20017;-81
2021/11/21 08:43:33;;;;;;;8.13;5.27;;;9.70;99.90;;;;;;6149298;23;20036;-81
2021/11/21 08:46:00;;;;;;;32.10;23.00;;;9.80;99.90;;;;;;6149745;23;20009;-81
2021/11/21 08:48:27;;;;;;;15.63;10.07;;;9.80;99.90;;;;;;6174287;23;20027;-83
2021/11/21 08:50:54;;;;;;;13.32;9.82;;;9.80;99.90;;;;;;6175205;23;20021;-81
2021/11/21 08:53:21;;;;;;;10.48;5.93;;;9.90;99.90;;;;;;6174920;23;20024;-81
2021/11/21 08:55:48;;;;;;;7.03;3.70;;;9.90;99.90;;;;;;6176593;23;20459;-81
2021/11/21 08:58:15;;;;;;;5.93;3.70;;;9.90;99.90;;;;;;6175915;23;20096;-82
2021/11/21 09:00:42;;;;;;;6.88;3.38;;;10.00;99.90;;;;;;6176836;23;20025;-82
2021/11/21 09:03:09;;;;;;;7.80;3.35;;;10.00;99.90;;;;;;6150458;23;20021;-83
2021/11/21 09:05:36;;;;;;;8.00;3.50;;;10.00;99.90;;;;;;6151451;23;20017;-83
2021/11/21 09:08:15;;;;;;;8.52;3.55;;;10.00;99.90;;;;;;6152176;23;20545;-83
2021/11/21 09:10:43;;;;;;;6.47;2.80;;;10.00;99.90;;;;;;6177827;23;20096;-84
2021/11/21 09:13:10;;;;;;;2.95;1.98;;;10.00;99.90;;;;;;6176278;23;20025;-83
2021/11/21 09:15:38;;;;;;;10.60;3.15;;;10.00;99.90;;;;;;6176577;23;20028;-82
2021/11/21 09:18:05;;;;;;;8.07;1.75;;;9.90;99.90;;;;;;6149063;23;20017;-79
2021/11/21 09:20:57;;;;;;;8.32;1.70;;;9.80;99.90;;;;;;6172153;23;20016;-78
2021/11/21 09:23:25;;;;;;;10.77;1.60;;;9.70;99.90;;;;;;6149657;23;20347;-77
2021/11/21 09:25:52;;;;;;;9.60;1.83;;;9.60;99.90;;;;;;6175825;23;20091;-80
2021/11/21 09:28:26;;;;;;;12.40;1.88;;;9.50;99.90;;;;;;6175214;23;20087;-77
2021/11/21 09:30:55;;;;;;;7.13;1.35;;;9.50;99.90;;;;;;6176338;23;20017;-79
2021/11/21 09:33:24;;;;;;;10.10;1.58;;;9.50;99.90;;;;;;6145984;23;20025;-79
2021/11/21 09:35:54;;;;;;;10.83;1.50;;;9.50;99.90;;;;;;6149560;23;20017;-79
2021/11/21 09:38:21;;;;;;;6.88;1.55;;;9.50;99.90;;;;;;6174250;23;20032;-81
2021/11/21 09:40:48;;;;;;;11.70;1.60;;;9.50;99.90;;;;;;6124729;23;20083;-77
2021/11/21 09:43:16;;;;;;;16.13;2.15;;;9.50;99.90;;;;;;6174159;23;20032;-81
2021/11/21 09:45:46;;;;;;;8.77;1.40;;;9.50;99.90;;;;;;6175686;23;20117;-79
2021/11/21 09:48:13;;;;;;;11.10;1.40;;;9.60;99.90;;;;;;6148964;23;20028;-79
2021/11/21 09:50:42;;;;;;;9.73;1.73;;;9.60;99.90;;;;;;6175126;23;20024;-79
2021/11/21 09:53:11;;;;;;;9.13;1.58;;;9.60;99.90;;;;;;6148428;23;20021;-79
2021/11/21 09:55:38;;;;;;;7.90;1.42;;;9.60;99.90;;;;;;6149382;23;20032;-78
2021/11/21 09:58:05;;;;;;;10.15;2.17;;;9.60;99.90;;;;;;6173803;23;20103;-78
2021/11/21 10:00:33;;;;;;;12.60;1.77;;;9.60;99.90;;;;;;6173011;23;20341;-80
2021/11/21 10:03:15;;;;;;;11.27;1.80;;;9.70;99.90;;;;;;6175176;23;20021;-80
2021/11/21 10:05:50;;;;;;;10.57;1.75;;;9.60;99.90;;;;;;6174522;23;20440;-79
2021/11/21 10:08:20;;;;;;;8.18;1.30;;;9.60;99.90;;;;;;6174609;23;20025;-81
2021/11/21 10:11:04;;;;;;;8.02;1.65;;;9.70;99.90;;;;;;6173901;23;20094;-79
2021/11/21 10:13:34;;;;;;;6.28;1.58;;;9.60;99.90;;;;;;6173969;23;20024;-80
2021/11/21 10:16:19;;;;;;;10.30;1.63;;;9.60;99.90;;;;;;6174456;23;20087;-80
2021/11/21 10:18:56;;;;;;;8.45;1.42;;;9.60;99.90;;;;;;6175049;23;20337;-80
2021/11/21 10:21:34;;;;;;;11.52;1.65;;;9.60;99.90;;;;;;6173436;23;20033;-80
2021/11/21 10:24:11;;;;;;;9.65;1.85;;;9.60;99.90;;;;;;6174734;23;20020;-80
2021/11/21 10:26:39;;;;;;;8.90;1.45;;;9.60;99.90;;;;;;6174970;23;20017;-81
2021/11/21 10:29:36;;;;;;;14.63;2.30;;;9.60;99.90;;;;;;6174373;23;20017;-81
2021/11/21 10:32:26;;;;;;;12.05;2.17;;;9.60;99.90;;;;;;6174968;23;20017;-80
2021/11/21 10:34:56;;;;;;;10.10;1.67;;;9.60;99.90;;;;;;6173441;23;20020;-79
2021/11/21 10:37:37;;;;;;;14.07;2.03;;;9.60;99.90;;;;;;6172224;23;20025;-79
2021/11/21 10:40:12;;;;;;;12.95;2.20;;;9.60;99.90;;;;;;6146799;23;20389;-79
2021/11/21 10:42:42;;;;;;;13.90;2.20;;;9.60;99.90;;;;;;6171851;23;20075;-79
2021/11/21 10:45:11;;;;;;;15.70;2.47;;;9.60;99.90;;;;;;6172246;23;20021;-79
2021/11/21 10:47:53;;;;;;;15.30;2.60;;;9.60;99.90;;;;;;6172763;23;20025;-79
2021/11/21 10:50:31;;;;;;;17.40;2.35;;;9.70;99.90;;;;;;6172920;23;20545;-79
2021/11/21 10:53:01;;;;;;;10.75;2.22;;;9.70;99.90;;;;;;6172778;23;20029;-78
2021/11/21 10:55:31;;;;;;;12.18;2.80;;;9.70;99.90;;;;;;6167099;23;20028;-77
2021/11/21 10:58:16;;;;;;;13.70;2.17;;;9.70;99.90;;;;;;6172837;23;20016;-79
2021/11/21 11:00:54;;;;;;;8.82;1.90;;;9.80;99.90;;;;;;6171832;23;20033;-79
2021/11/21 11:03:22;;;;;;;7.05;1.77;;;10.00;99.90;;;;;;6173416;23;20558;-78
2021/11/21 11:05:49;;;;;;;10.00;3.07;;;10.00;99.90;;;;;;6146606;23;20032;-78
2021/11/21 11:08:28;;;;;;;8.32;2.20;;;10.10;99.90;;;;;;6172095;23;20252;-78
2021/11/21 11:10:55;;;;;;;10.10;2.72;;;10.20;99.90;;;;;;6172844;23;20025;-80
2021/11/21 11:13:23;;;;;;;7.47;1.75;;;10.30;99.90;;;;;;6172004;23;20032;-78
2021/11/21 11:15:55;;;;;;;12.00;2.20;;;10.40;99.90;;;;;;6172451;23;20028;-79
2021/11/21 11:18:25;;;;;;;8.90;2.28;;;10.50;99.90;;;;;;6171799;23;20025;-78
2021/11/21 11:21:02;;;;;;;8.60;1.83;;;10.50;99.90;;;;;;6172162;23;20032;-78
2021/11/21 11:23:29;;;;;;;9.55;2.33;;;10.50;99.90;;;;;;6170610;23;20021;-77
2021/11/21 11:26:04;;;;;;;6.18;1.80;;;10.60;99.90;;;;;;6171273;23;20032;-79
2021/11/21 11:28:34;;;;;;;12.88;3.08;;;10.50;99.90;;;;;;6169893;23;20045;-78
2021/11/21 11:31:22;;;;;;;10.07;1.98;;;10.50;99.90;;;;;;6171992;23;20028;-79
2021/11/21 11:33:54;;;;;;;12.93;2.45;;;10.60;99.90;;;;;;6171877;23;20017;-78
2021/11/21 11:36:27;;;;;;;9.55;2.00;;;10.50;99.90;;;;;;6171573;23;20087;-81
2021/11/21 11:39:37;;;;;;;9.35;1.90;;;10.50;99.90;;;;;;6172650;23;20732;-81
2021/11/21 11:42:34;;;;;;;8.07;1.65;;;10.50;99.90;;;;;;6143093;23;20045;-81
2021/11/21 11:45:18;;;;;;;7.50;1.35;;;10.50;99.90;;;;;;6124626;23;20032;-81
2021/11/21 11:48:15;;;;;;;9.77;1.80;;;10.50;99.90;;;;;;6104838;23;20069;-83
2021/11/21 11:51:04;;;;;;;6.18;1.33;;;10.60;99.90;;;;;;6103772;23;20152;-83
2021/11/21 11:54:31;;;;;;;9.02;1.88;;;10.60;99.90;;;;;;6098096;23;20020;-82
2021/11/21 11:57:37;;;;;;;10.27;1.58;;;10.40;99.90;;;;;;6050670;23;20542;-85
2021/11/21 12:00:35;;;;;;;10.30;1.30;;;10.40;99.90;;;;;;6002085;23;20050;-85
2021/11/21 12:04:05;;;;;;;12.23;1.83;;;10.50;99.90;;;;;;6142478;23;20017;-84
2021/11/21 12:07:28;;;;;;;10.13;1.60;;;10.40;99.90;;;;;;6104356;23;20021;-85
2021/11/21 12:10:20;;;;;;;11.85;1.60;;;10.40;99.90;;;;;;6127666;23;20125;-83
2021/11/21 12:13:17;;;;;;;8.63;1.50;;;10.40;99.90;;;;;;6154943;23;20021;-84
2021/11/21 12:16:08;;;;;;;6.43;1.05;;;10.30;99.90;;;;;;6125071;23;20551;-85
2021/11/21 12:18:54;;;;;;;14.95;2.83;;;10.30;99.90;;;;;;6081856;23;20026;-84
2021/11/21 12:21:37;;;;;;;17.80;3.78;;;10.40;99.90;;;;;;6142082;23;20387;-82
2021/11/21 12:24:33;;;;;;;7.37;1.90;;;10.50;99.90;;;;;;6129658;23;20026;-85
2021/11/21 12:31:31;;;;;;;74.28;26.50;;;10.60;99.90;;;;;;5844981;23;20027;-88
2021/11/21 12:34:43;;;;;;;50.28;10.55;;;10.80;99.90;;;;;;5918988;23;20102;-82
2021/11/21 12:37:43;;;;;;;17.95;4.03;;;10.90;99.90;;;;;;6000444;23;20146;-83
2021/11/21 12:40:45;;;;;;;15.68;4.47;;;10.90;99.90;;;;;;5922432;24;20078;-82
2021/11/21 12:43:18;;;;;;;6.03;1.42;;;10.90;99.90;;;;;;5917998;24;20687;-84
2021/11/21 12:46:03;;;;;;;7.68;1.50;;;11.00;99.90;;;;;;5914939;24;20036;-80
2021/11/21 12:48:31;;;;;;;10.43;1.80;;;11.00;99.90;;;;;;5920434;24;20032;-79
2021/11/21 12:51:04;;;;;;;8.80;1.65;;;10.90;99.90;;;;;;5966885;23;20498;-80
2021/11/21 12:53:37;;;;;;;10.38;1.50;;;10.80;99.90;;;;;;5969405;23;20486;-79
2021/11/21 12:56:06;;;;;;;9.32;1.90;;;10.80;99.90;;;;;;5947455;23;20503;-78
2021/11/21 12:58:36;;;;;;;11.05;1.80;;;10.70;99.90;;;;;;5970285;23;20103;-80
2021/11/21 13:01:06;;;;;;;14.30;2.13;;;10.80;99.90;;;;;;5983005;23;20027;-77
2021/11/21 13:03:33;;;;;;;8.73;1.70;;;10.80;99.90;;;;;;6053894;23;20544;-80
2021/11/21 13:06:05;;;;;;;13.95;1.80;;;10.90;99.90;;;;;;6055345;23;20533;-81
2021/11/21 13:08:32;;;;;;;6.00;1.30;;;10.90;99.90;;;;;;6055452;23;20057;-82
2021/11/21 13:11:04;;;;;;;7.80;0.90;;;10.90;99.90;;;;;;6082989;23;20124;-79
2021/11/21 13:13:37;;;;;;;6.40;1.50;;;11.00;99.90;;;;;;6119320;23;20028;-78
2021/11/21 13:16:13;;;;;;;11.73;1.67;;;11.10;99.90;;;;;;6144920;23;20018;-78
2021/11/21 13:18:43;;;;;;;6.35;1.10;;;10.80;99.90;;;;;;6145789;23;20026;-81
2021/11/21 13:21:18;;;;;;;8.00;1.13;;;10.50;99.90;;;;;;6144220;23;20025;-81
2021/11/21 13:24:00;;;;;;;10.32;1.02;;;10.20;99.90;;;;;;6146491;23;20531;-83
2021/11/21 13:26:28;;;;;;;8.93;1.45;;;10.00;99.90;;;;;;6144870;23;20806;-80
2021/11/21 13:28:59;;;;;;;7.03;1.45;;;9.80;99.90;;;;;;6146352;23;20128;-82
2021/11/21 13:31:32;;;;;;;5.63;1.05;;;9.60;99.90;;;;;;6144741;23;20029;-78
2021/11/21 13:34:02;;;;;;;9.45;1.15;;;9.50;99.90;;;;;;6146056;23;20100;-81
2021/11/21 13:36:34;;;;;;;12.20;1.38;;;9.50;99.90;;;;;;6145306;23;20028;-82
2021/11/21 13:39:06;;;;;;;14.50;1.50;;;9.50;99.90;;;;;;6145832;23;20111;-80
2021/11/21 13:41:36;;;;;;;12.80;2.47;;;9.60;99.90;;;;;;6145538;23;20056;-80
2021/11/21 13:44:15;;;;;;;5.68;1.10;;;9.70;99.90;;;;;;6145969;23;20472;-78
2021/11/21 13:46:46;;;;;;;6.90;0.95;;;9.70;99.90;;;;;;6145222;23;20033;-80
2021/11/21 13:49:25;;;;;;;6.45;0.70;;;9.70;99.90;;;;;;6144972;23;20040;-82
2021/11/21 13:52:06;;;;;;;;;;;9.70;99.90;;;;;;6145132;23;20482;-80
2021/11/21 13:54:42;;;;;;;6.13;0.75;;;9.70;99.90;;;;;;6144888;23;19916;-81
2021/11/21 13:57:18;;;;;;;6.88;1.20;;;9.60;99.90;;;;;;6144745;23;20073;-81
2021/11/21 13:59:45;;;;;;;10.02;1.02;;;9.50;99.90;;;;;;6144296;23;20032;-80
2021/11/21 14:02:12;;;;;;;6.13;1.20;;;9.50;99.90;;;;;;6143673;23;20039;-81
2021/11/21 14:04:40;;;;;;;10.40;1.83;;;9.40;99.90;;;;;;6145932;23;20024;-81
2021/11/21 14:07:12;;;;;;;13.05;1.55;;;9.40;99.90;;;;;;6117608;23;20028;-79
2021/11/21 14:10:00;;;;;;;10.88;1.58;;;9.30;99.90;;;;;;6145376;23;20021;-80
2021/11/21 14:12:28;;;;;;;9.48;1.65;;;9.30;99.90;;;;;;6105087;23;20672;-82
2021/11/21 14:15:08;;;;;;;9.98;1.27;;;9.30;99.90;;;;;;6145589;23;20376;-82
2021/11/21 14:17:45;;;;;;;10.73;1.52;;;9.30;99.90;;;;;;6144943;23;20710;-80
2021/11/21 14:23:27;;;;;;;10.73;2.30;;;9.40;99.90;;;;;;6144113;23;20109;-81
2021/11/21 14:25:58;;;;;;;10.30;1.73;;;9.50;99.90;;;;;;6144878;23;20080;-81
2021/11/21 14:28:28;;;;;;;8.95;2.25;;;9.50;99.90;;;;;;6144127;23;20025;-81
2021/11/21 14:30:57;;;;;;;8.63;1.40;;;9.50;99.90;;;;;;6145051;23;20497;-81
2021/11/21 14:33:30;;;;;;;12.85;1.98;;;9.60;99.90;;;;;;6143966;23;20475;-82
2021/11/21 14:36:00;;;;;;;12.60;3.15;;;9.60;99.90;;;;;;6143526;23;20021;-82
2021/11/21 14:38:28;;;;;;;11.18;1.50;;;9.70;99.90;;;;;;6103501;23;20017;-81
2021/11/21 14:41:09;;;;;;;8.18;1.98;;;9.80;99.90;;;;;;6117757;23;20010;-80
2021/11/21 14:43:45;;;;;;;8.13;1.48;;;9.70;99.90;;;;;;6141648;23;20025;-79
2021/11/21 14:46:14;;;;;;;8.25;1.30;;;9.70;99.90;;;;;;6139552;23;20029;-79
2021/11/21 14:48:50;;;;;;;7.95;1.33;;;9.70;99.90;;;;;;6122591;23;20100;-80
2021/11/21 14:51:18;;;;;;;10.07;1.45;;;9.70;99.90;;;;;;6146925;23;20085;-82
2021/11/21 14:53:46;;;;;;;11.07;1.48;;;9.70;99.90;;;;;;6122870;23;20543;-79
2021/11/21 14:56:17;;;;;;;11.43;1.35;;;9.60;99.90;;;;;;6147759;23;20026;-81
2021/11/21 14:58:47;;;;;;;14.52;1.55;;;9.70;99.90;;;;;;6148405;23;20083;-80
2021/11/21 15:01:18;;;;;;;9.52;1.50;;;9.60;99.90;;;;;;6147273;23;20033;-82
2021/11/21 15:03:48;;;;;;;10.50;1.60;;;9.60;99.90;;;;;;6148281;23;20027;-81
2021/11/21 15:06:17;;;;;;;7.75;1.63;;;9.60;99.90;;;;;;6147075;23;20033;-80
2021/11/21 15:08:44;;;;;;;;;;;9.50;99.90;;;;;;6148599;23;20111;-81
2021/11/21 15:11:12;;;;;;;7.93;1.08;;;9.50;99.90;;;;;;6147760;23;20363;-80
2021/11/21 15:13:40;;;;;;;6.03;0.95;;;9.60;99.90;;;;;;6147522;23;20433;-80
2021/11/21 15:16:07;;;;;;;6.68;1.00;;;9.60;99.90;;;;;;6146944;23;20025;-81
2021/11/21 15:18:34;;;;;;;4.20;1.00;;;9.40;99.90;;;;;;6148875;23;20022;-84
2021/11/21 15:21:03;;;;;;;3.83;0.75;;;9.20;99.90;;;;;;6148942;23;20491;-84
2021/11/21 15:23:54;;;;;;;3.75;0.90;;;9.10;99.90;;;;;;6147021;23;20017;-82
2021/11/21 15:26:24;;;;;;;12.50;1.80;;;8.90;99.90;;;;;;6146164;23;20037;-82
2021/11/21 15:28:52;;;;;;;10.35;2.42;;;8.80;99.90;;;;;;6147735;23;20080;-83
2021/11/21 15:31:19;;;;;;;3.55;1.20;;;8.70;99.90;;;;;;6146753;23;20097;-83
2021/11/21 15:33:49;;;;;;;5.18;1.30;;;8.60;99.90;;;;;;6145392;23;20033;-82
2021/11/21 15:36:17;;;;;;;10.38;1.92;;;8.60;99.90;;;;;;6145481;23;20021;-82
2021/11/21 15:38:45;;;;;;;9.85;1.90;;;8.60;99.90;;;;;;6147725;23;20367;-81
2021/11/21 15:41:13;;;;;;;10.77;3.33;;;8.60;99.90;;;;;;6147445;23;20017;-81
2021/11/21 15:43:41;;;;;;;6.70;1.13;;;8.50;99.90;;;;;;6148640;23;20427;-82
2021/11/21 15:46:08;;;;;;;7.35;1.92;;;8.50;99.90;;;;;;6147296;23;20021;-81
2021/11/21 15:48:36;;;;;;;8.07;1.77;;;8.50;99.90;;;;;;6148479;23;20033;-80
2021/11/21 15:51:03;;;;;;;11.30;1.95;;;8.50;99.90;;;;;;6149474;23;20022;-81
2021/11/21 15:53:30;;;;;;;5.55;0.90;;;8.50;99.90;;;;;;6147387;23;20085;-80
2021/11/21 15:55:57;;;;;;;6.13;1.33;;;8.50;99.90;;;;;;6147299;23;20021;-79
2021/11/21 15:58:24;;;;;;;6.28;1.20;;;8.50;99.90;;;;;;6147927;23;20029;-80
2021/11/21 16:00:51;;;;;;;8.20;1.17;;;8.40;99.90;;;;;;6146939;23;20480;-80
2021/11/21 16:03:19;;;;;;;11.80;1.50;;;8.40;99.90;;;;;;6146461;23;20025;-79
2021/11/21 16:05:46;;;;;;;10.80;1.95;;;8.40;99.90;;;;;;6147984;23;20021;-79
2021/11/21 16:08:14;;;;;;;7.63;1.35;;;8.40;99.90;;;;;;6135720;23;20028;-82
2021/11/21 16:10:42;;;;;;;14.27;1.58;;;8.40;99.90;;;;;;6150067;23;20244;-79
2021/11/21 16:13:16;;;;;;;7.38;1.75;;;8.30;99.90;;;;;;6143488;23;20022;-80
2021/11/21 16:15:43;;;;;;;9.48;1.70;;;8.30;99.90;;;;;;6146377;23;20341;-77
2021/11/21 16:18:10;;;;;;;13.93;1.90;;;8.30;99.90;;;;;;6144187;23;20029;-81
2021/11/21 16:20:39;;;;;;;8.13;1.27;;;8.20;99.90;;;;;;6145399;23;20100;-80
2021/11/21 16:23:08;;;;;;;8.10;1.48;;;8.20;99.90;;;;;;6145152;23;20029;-79
2021/11/21 16:25:36;;;;;;;9.93;1.58;;;8.10;99.90;;;;;;6145211;23;20018;-79
2021/11/21 16:28:03;;;;;;;9.88;1.55;;;8.20;99.90;;;;;;6145446;23;20076;-81
2021/11/21 16:30:30;;;;;;;6.25;1.25;;;8.10;99.90;;;;;;6143425;23;20025;-80
2021/11/21 16:33:01;;;;;;;7.55;1.55;;;8.10;99.90;;;;;;6143309;23;20076;-79
2021/11/21 16:35:30;;;;;;;10.40;1.52;;;8.10;99.90;;;;;;6143629;23;20495;-81
2021/11/21 16:37:57;;;;;;;11.25;1.50;;;8.00;99.90;;;;;;6144775;23;20018;-79
2021/11/21 16:40:24;;;;;;;10.35;1.48;;;8.00;99.90;;;;;;6143356;23;20084;-80
2021/11/21 16:42:51;;;;;;;10.70;1.80;;;8.00;99.90;;;;;;6144882;23;20093;-78
2021/11/21 16:45:20;;;;;;;10.20;1.63;;;7.90;99.90;;;;;;6143376;23;20030;-81
2021/11/21 16:47:47;;;;;;;10.25;2.00;;;7.90;99.90;;;;;;6143531;23;20026;-80
2021/11/21 16:50:16;;;;;;;7.00;1.63;;;7.90;99.90;;;;;;6143473;23;20043;-79
2021/11/21 16:52:43;;;;;;;9.40;1.50;;;7.90;99.90;;;;;;6143897;23;20021;-79
2021/11/21 16:55:12;;;;;;;6.68;1.40;;;7.80;99.90;;;;;;6140741;23;20257;-79
2021/11/21 16:57:39;;;;;;;8.50;1.40;;;7.80;99.90;;;;;;6142296;23;20026;-79
2021/11/21 17:00:10;;;;;;;10.85;1.85;;;7.70;99.90;;;;;;6144260;23;20097;-80
2021/11/21 17:02:37;;;;;;;10.02;1.42;;;7.70;99.90;;;;;;6145370;23;20022;-79
2021/11/21 17:05:05;;;;;;;9.77;1.70;;;7.60;99.90;;;;;;6145535;23;20018;-81
2021/11/21 17:07:32;;;;;;;13.98;2.00;;;7.60;99.90;;;;;;6143133;23;20080;-82
2021/11/21 17:09:59;;;;;;;10.00;1.95;;;7.60;99.90;;;;;;6145649;23;20021;-79
2021/11/21 17:12:26;;;;;;;7.20;1.85;;;7.60;99.90;;;;;;6145659;23;20025;-79
2021/11/21 17:14:57;;;;;;;13.25;1.40;;;7.50;99.90;;;;;;6142727;23;20025;-79
2021/11/21 17:17:24;;;;;;;8.45;1.60;;;7.50;99.90;;;;;;6144863;23;20475;-82
2021/11/21 17:19:53;;;;;;;9.30;1.85;;;7.50;99.90;;;;;;6145584;23;20484;-82
2021/11/21 17:22:21;;;;;;;11.07;2.50;;;7.50;99.90;;;;;;6143351;23;20085;-80
2021/11/21 17:24:55;;;;;;;9.88;1.35;;;7.50;99.90;;;;;;6120003;23;20026;-81
2021/11/21 17:27:28;;;;;;;6.53;1.30;;;7.50;99.90;;;;;;6131547;23;20017;-79
2021/11/21 17:29:55;;;;;;;10.52;1.75;;;7.50;99.90;;;;;;6148584;23;20021;-80
2021/11/21 17:32:22;;;;;;;8.85;1.92;;;7.50;99.90;;;;;;6173964;23;20035;-80
2021/11/21 17:34:50;;;;;;;10.18;1.80;;;7.40;99.90;;;;;;6148329;23;20025;-79
2021/11/21 17:37:19;;;;;;;6.13;1.50;;;7.40;99.90;;;;;;6173639;23;20032;-80
2021/11/21 17:39:46;;;;;;;5.38;1.38;;;7.40;99.90;;;;;;6147916;23;20017;-79
2021/11/21 17:42:13;;;;;;;8.10;1.20;;;7.40;99.90;;;;;;6172563;23;20032;-79
2021/11/21 17:44:43;;;;;;;8.98;1.77;;;7.40;99.90;;;;;;6173075;23;20025;-81
2021/11/21 17:47:10;;;;;;;12.68;2.60;;;7.40;99.90;;;;;;6172048;23;20024;-80
2021/11/21 17:49:38;;;;;;;9.85;1.27;;;7.40;99.90;;;;;;6172225;23;20025;-81
2021/11/21 17:52:05;;;;;;;6.82;1.52;;;7.40;99.90;;;;;;6171831;23;20017;-82
2021/11/21 17:54:34;;;;;;;8.65;1.50;;;7.40;99.90;;;;;;6172568;23;20029;-80
2021/11/21 17:57:03;;;;;;;10.38;1.85;;;7.40;99.90;;;;;;6172306;23;20717;-81
2021/11/21 17:59:32;;;;;;;7.82;1.40;;;7.30;99.90;;;;;;6170929;23;20939;-80
2021/11/21 18:02:00;;;;;;;10.40;2.80;;;7.30;99.90;;;;;;6171733;23;20021;-82
2021/11/21 18:04:27;;;;;;;13.20;1.55;;;7.30;99.90;;;;;;6173502;23;20279;-82
2021/11/21 18:06:55;;;;;;;8.57;1.95;;;7.30;99.90;;;;;;6173462;23;20013;-81
2021/11/21 18:09:22;;;;;;;7.55;1.23;;;7.20;99.90;;;;;;6171191;23;20508;-80
2021/11/21 18:11:49;;;;;;;12.57;1.95;;;7.20;99.90;;;;;;6145623;23;20099;-79
2021/11/21 18:14:17;;;;;;;10.52;1.77;;;7.20;99.90;;;;;;6170245;23;20048;-81
2021/11/21 18:16:45;;;;;;;9.37;2.03;;;7.20;99.90;;;;;;6172005;23;20009;-80
2021/11/21 18:19:13;;;;;;;7.85;1.60;;;7.10;99.90;;;;;;6131054;23;20674;-81
2021/11/21 18:21:45;;;;;;;27.85;8.43;;;7.20;99.90;;;;;;6146408;23;20482;-80
2021/11/21 18:24:16;;;;;;;10.45;2.42;;;7.20;99.90;;;;;;6171268;23;20035;-80
2021/11/21 18:26:43;;;;;;;12.40;2.85;;;7.20;99.90;;;;;;6173148;23;20055;-81
2021/11/21 18:29:16;;;;;;;9.38;2.25;;;7.20;99.90;;;;;;6171480;23;20028;-81
2021/11/21 18:31:44;;;;;;;7.15;3.35;;;7.20;99.90;;;;;;6169342;23;20039;-82
2021/11/21 18:34:11;;;;;;;6.70;2.10;;;7.20;99.90;;;;;;6144480;23;20025;-81
2021/11/21 18:36:38;;;;;;;6.30;1.42;;;7.20;99.90;;;;;;6146809;23;20016;-81
2021/11/21 18:39:06;;;;;;;6.22;1.50;;;7.20;99.90;;;;;;6144696;23;20020;-80
2021/11/21 18:41:39;;;;;;;10.85;2.00;;;7.10;99.90;;;;;;6147816;23;20015;-80
2021/11/21 18:44:09;;;;;;;5.55;1.55;;;7.10;99.90;;;;;;6170854;23;20025;-81
2021/11/21 18:46:40;;;;;;;6.05;1.33;;;7.10;99.90;;;;;;6173807;23;20025;-81
2021/11/21 18:49:07;;;;;;;3.53;0.98;;;7.10;99.90;;;;;;6172286;23;20479;-81
2021/11/21 18:51:34;;;;;;;6.43;1.27;;;7.10;99.90;;;;;;6172116;23;20021;-81
2021/11/21 18:54:01;;;;;;;4.18;0.93;;;7.10;99.90;;;;;;6146255;23;20017;-82
2021/11/21 18:56:32;;;;;;;4.53;1.08;;;7.10;99.90;;;;;;6108016;23;20021;-81
2021/11/21 18:59:10;;;;;;;6.78;1.00;;;7.00;99.90;;;;;;6147359;23;20084;-81
2021/11/21 19:01:41;;;;;;;6.53;1.25;;;7.00;99.90;;;;;;6172041;23;20049;-80
2021/11/21 19:04:08;;;;;;;5.60;1.65;;;7.00;99.90;;;;;;6172473;23;20021;-79
2021/11/21 19:06:35;;;;;;;7.20;1.65;;;7.00;99.90;;;;;;6146595;23;20040;-79
2021/11/21 19:09:03;;;;;;;3.72;1.20;;;7.00;99.90;;;;;;6148040;23;20029;-79
2021/11/21 19:11:30;;;;;;;3.80;1.10;;;7.00;99.90;;;;;;6172486;23;20017;-80
2021/11/21 19:13:58;;;;;;;8.43;1.30;;;6.90;99.90;;;;;;6174252;23;20025;-80
2021/11/21 19:16:25;;;;;;;4.05;1.08;;;6.90;99.90;;;;;;6172797;23;20020;-80
2021/11/21 19:18:52;;;;;;;6.03;1.30;;;6.90;99.90;;;;;;6147711;23;20013;-81
2021/11/21 19:21:19;;;;;;;11.48;2.08;;;6.90;99.90;;;;;;6173101;23;20102;-79
2021/11/21 19:23:46;;;;;;;5.75;1.65;;;6.90;99.90;;;;;;6173791;23;20080;-79
2021/11/21 19:26:13;;;;;;;9.55;2.20;;;6.90;99.90;;;;;;6172431;23;20052;-80
2021/11/21 19:28:42;;;;;;;3.63;0.70;;;6.80;99.90;;;;;;6148161;23;20079;-81
2021/11/21 19:31:09;;;;;;;4.03;0.90;;;6.90;99.90;;;;;;6147291;23;20025;-81
2021/11/21 19:33:36;;;;;;;2.45;0.63;;;7.00;99.90;;;;;;6174075;23;20270;-78
2021/11/21 19:36:05;;;;;;;2.75;0.73;;;7.00;99.90;;;;;;6173738;23;20017;-78
2021/11/21 19:38:34;;;;;;;3.55;0.70;;;6.90;99.90;;;;;;6172241;23;20025;-82
2021/11/21 19:41:01;;;;;;;;;;;6.90;99.90;;;;;;6172591;23;20028;-80
2021/11/21 19:43:29;;;;;;;3.00;0.77;;;6.70;99.90;;;;;;6172089;23;19927;-78
2021/11/21 19:45:56;;;;;;;3.40;0.90;;;6.70;99.90;;;;;;6174232;23;20021;-79
2021/11/21 19:48:23;;;;;;;3.03;0.40;;;6.60;99.90;;;;;;6170898;23;20033;-79
2021/11/21 19:50:50;;;;;;;3.30;0.45;;;6.60;99.90;;;;;;6146010;23;20017;-79
2021/11/21 19:53:17;;;;;;;2.75;0.60;;;6.70;99.90;;;;;;6173669;23;20029;-80
2021/11/21 19:55:44;;;;;;;2.60;0.50;;;6.70;99.90;;;;;;6173721;23;20044;-80
2021/11/21 19:58:11;;;;;;;4.03;0.52;;;6.70;99.90;;;;;;6145063;23;20029;-79
2021/11/21 20:00:38;;;;;;;1.98;0.40;;;6.60;99.90;;;;;;6144551;23;20017;-78
2021/11/21 20:03:05;;;;;;;2.58;0.52;;;6.60;99.90;;;;;;6172904;23;20422;-79
2021/11/21 20:05:32;;;;;;;2.00;0.43;;;6.60;99.90;;;;;;6171672;23;20017;-79
2021/11/21 20:07:59;;;;;;;1.98;0.30;;;6.60;99.90;;;;;;6173160;23;20013;-79
2021/11/21 20:10:30;;;;;;;3.35;0.40;;;6.60;99.90;;;;;;6172036;23;20048;-81
2021/11/21 20:12:59;;;;;;;5.50;0.73;;;6.50;99.90;;;;;;6173176;23;20036;-80
2021/11/21 20:15:27;;;;;;;;;;;6.50;99.90;;;;;;6171684;23;20021;-78
2021/11/21 20:17:54;;;;;;;1.02;0.40;;;6.50;99.90;;;;;;6172367;23;20389;-81
2021/11/21 20:20:24;;;;;;;2.63;0.43;;;6.50;99.90;;;;;;6145933;23;20024;-81
2021/11/21 20:22:52;;;;;;;1.17;0.40;;;6.50;99.90;;;;;;6171931;23;20032;-79